sensor_id;sensor_type;location;lat;lon;timestamp;P1;durP1;ratioP1;P2;durP2;ratioP2
4857;SDS011;58975;51.978;8.472;2023-07-29T00:00:20;1.85;;;1.52;;
4857;SDS011;58975;51.978;8.472;2023-07-29T00:05:17;2.30;;;1.50;;
4857;SDS011;58975;51.978;8.472;2023-07-29T00:10:14;2.72;;;1.30;;
4857;SDS011;58975;51.978;8.472;2023-07-29T00:15:11;1.95;;;1.15;;
4857;SDS011;58975;51.978;8.472;2023-07-29T00:20:08;1.52;;;1.42;;
4857;SDS011;58975;51.978;8.472;2023-07-29T00:25:04;1.50;;;1.38;;
4857;SDS011;58975;51.978;8.472;2023-07-29T00:30:02;5.15;;;1.80;;
4857;SDS011;58975;51.978;8.472;2023-07-29T00:34:58;3.93;;;1.67;;
4857;SDS011;58975;51.978;8.472;2023-07-29T00:39:57;2.65;;;1.98;;
4857;SDS011;58975;51.978;8.472;2023-07-29T00:44:54;1.85;;;1.75;;
4857;SDS011;58975;51.978;8.472;2023-07-29T00:49:50;1.98;;;1.63;;
4857;SDS011;58975;51.978;8.472;2023-07-29T00:54:47;2.20;;;2.00;;
4857;SDS011;58975;51.978;8.472;2023-07-29T00:59:44;1.80;;;1.67;;
4857;SDS011;58975;51.978;8.472;2023-07-29T01:04:40;2.47;;;1.73;;
4857;SDS011;58975;51.978;8.472;2023-07-29T01:09:45;4.38;;;2.42;;
4857;SDS011;58975;51.978;8.472;2023-07-29T01:20:02;2.90;;;2.45;;
4857;SDS011;58975;51.978;8.472;2023-07-29T01:25:03;1.65;;;1.55;;
4857;SDS011;58975;51.978;8.472;2023-07-29T01:30:00;2.03;;;1.70;;
4857;SDS011;58975;51.978;8.472;2023-07-29T01:40:27;3.28;;;1.80;;
4857;SDS011;58975;51.978;8.472;2023-07-29T01:45:24;2.13;;;1.67;;
4857;SDS011;58975;51.978;8.472;2023-07-29T01:50:22;2.92;;;1.85;;
4857;SDS011;58975;51.978;8.472;2023-07-29T01:55:18;1.92;;;1.83;;
4857;SDS011;58975;51.978;8.472;2023-07-29T02:00:15;2.15;;;1.70;;
4857;SDS011;58975;51.978;8.472;2023-07-29T02:05:12;7.00;;;1.88;;
4857;SDS011;58975;51.978;8.472;2023-07-29T02:10:08;3.33;;;2.00;;
4857;SDS011;58975;51.978;8.472;2023-07-29T02:15:05;3.13;;;2.17;;
4857;SDS011;58975;51.978;8.472;2023-07-29T02:20:02;2.30;;;1.95;;
4857;SDS011;58975;51.978;8.472;2023-07-29T02:24:59;2.53;;;2.05;;
4857;SDS011;58975;51.978;8.472;2023-07-29T02:29:57;2.60;;;2.22;;
4857;SDS011;58975;51.978;8.472;2023-07-29T02:34:53;2.85;;;2.22;;
4857;SDS011;58975;51.978;8.472;2023-07-29T02:39:49;4.75;;;2.50;;
4857;SDS011;58975;51.978;8.472;2023-07-29T02:44:46;3.80;;;2.25;;
4857;SDS011;58975;51.978;8.472;2023-07-29T02:49:42;2.83;;;2.17;;
4857;SDS011;58975;51.978;8.472;2023-07-29T02:54:39;4.07;;;1.90;;
4857;SDS011;58975;51.978;8.472;2023-07-29T02:59:36;3.65;;;2.20;;
4857;SDS011;58975;51.978;8.472;2023-07-29T03:04:32;2.67;;;1.83;;
4857;SDS011;58975;51.978;8.472;2023-07-29T03:09:29;3.35;;;1.90;;
4857;SDS011;58975;51.978;8.472;2023-07-29T03:14:26;2.20;;;2.00;;
4857;SDS011;58975;51.978;8.472;2023-07-29T03:19:22;2.17;;;1.70;;
4857;SDS011;58975;51.978;8.472;2023-07-29T03:24:19;4.63;;;1.88;;
4857;SDS011;58975;51.978;8.472;2023-07-29T03:29:15;3.78;;;2.17;;
4857;SDS011;58975;51.978;8.472;2023-07-29T03:34:12;3.70;;;1.73;;
4857;SDS011;58975;51.978;8.472;2023-07-29T03:39:08;2.10;;;1.90;;
4857;SDS011;58975;51.978;8.472;2023-07-29T03:44:05;4.70;;;2.08;;
4857;SDS011;58975;51.978;8.472;2023-07-29T03:49:01;4.88;;;2.13;;
4857;SDS011;58975;51.978;8.472;2023-07-29T03:59:05;2.70;;;2.05;;
4857;SDS011;58975;51.978;8.472;2023-07-29T04:04:02;1.33;;;1.23;;
4857;SDS011;58975;51.978;8.472;2023-07-29T04:08:58;2.90;;;1.60;;
4857;SDS011;58975;51.978;8.472;2023-07-29T04:13:55;2.00;;;1.75;;
4857;SDS011;58975;51.978;8.472;2023-07-29T04:18:51;2.45;;;1.40;;
4857;SDS011;58975;51.978;8.472;2023-07-29T04:23:48;1.80;;;1.58;;
4857;SDS011;58975;51.978;8.472;2023-07-29T04:28:44;1.88;;;1.77;;
4857;SDS011;58975;51.978;8.472;2023-07-29T04:33:41;3.85;;;1.90;;
4857;SDS011;58975;51.978;8.472;2023-07-29T04:38:37;2.33;;;2.13;;
4857;SDS011;58975;51.978;8.472;2023-07-29T04:43:34;2.75;;;1.98;;
4857;SDS011;58975;51.978;8.472;2023-07-29T04:48:30;4.00;;;2.72;;
4857;SDS011;58975;51.978;8.472;2023-07-29T04:53:27;4.15;;;2.13;;
4857;SDS011;58975;51.978;8.472;2023-07-29T04:58:23;2.53;;;1.90;;
4857;SDS011;58975;51.978;8.472;2023-07-29T05:03:20;2.30;;;2.10;;
4857;SDS011;58975;51.978;8.472;2023-07-29T05:08:16;3.65;;;2.17;;
4857;SDS011;58975;51.978;8.472;2023-07-29T05:13:13;3.10;;;2.13;;
4857;SDS011;58975;51.978;8.472;2023-07-29T05:18:09;6.03;;;2.42;;
4857;SDS011;58975;51.978;8.472;2023-07-29T05:23:05;3.25;;;2.45;;
4857;SDS011;58975;51.978;8.472;2023-07-29T05:28:03;2.53;;;2.22;;
4857;SDS011;58975;51.978;8.472;2023-07-29T05:33:00;5.00;;;2.40;;
4857;SDS011;58975;51.978;8.472;2023-07-29T05:37:57;3.00;;;2.80;;
4857;SDS011;58975;51.978;8.472;2023-07-29T05:42:53;4.88;;;2.65;;
4857;SDS011;58975;51.978;8.472;2023-07-29T05:47:50;4.50;;;2.50;;
4857;SDS011;58975;51.978;8.472;2023-07-29T05:52:46;2.92;;;2.42;;
4857;SDS011;58975;51.978;8.472;2023-07-29T05:57:43;2.20;;;2.03;;
4857;SDS011;58975;51.978;8.472;2023-07-29T06:02:39;5.60;;;2.00;;
4857;SDS011;58975;51.978;8.472;2023-07-29T06:07:39;3.20;;;2.20;;
4857;SDS011;58975;51.978;8.472;2023-07-29T06:12:40;2.55;;;2.13;;
4857;SDS011;58975;51.978;8.472;2023-07-29T06:17:36;1.90;;;1.80;;
4857;SDS011;58975;51.978;8.472;2023-07-29T06:22:33;4.97;;;1.83;;
4857;SDS011;58975;51.978;8.472;2023-07-29T06:27:29;1.67;;;1.38;;
4857;SDS011;58975;51.978;8.472;2023-07-29T06:32:25;3.13;;;2.20;;
4857;SDS011;58975;51.978;8.472;2023-07-29T06:37:22;2.03;;;1.73;;
4857;SDS011;58975;51.978;8.472;2023-07-29T06:42:19;2.20;;;1.95;;
4857;SDS011;58975;51.978;8.472;2023-07-29T06:47:15;1.98;;;1.80;;
4857;SDS011;58975;51.978;8.472;2023-07-29T06:52:11;5.32;;;3.08;;
4857;SDS011;58975;51.978;8.472;2023-07-29T06:57:08;3.80;;;2.72;;
4857;SDS011;58975;51.978;8.472;2023-07-29T07:02:06;5.40;;;4.77;;
4857;SDS011;58975;51.978;8.472;2023-07-29T07:07:02;6.75;;;4.95;;
4857;SDS011;58975;51.978;8.472;2023-07-29T07:11:59;11.73;;;7.93;;
4857;SDS011;58975;51.978;8.472;2023-07-29T07:16:56;15.82;;;10.10;;
4857;SDS011;58975;51.978;8.472;2023-07-29T07:21:52;15.70;;;10.75;;
4857;SDS011;58975;51.978;8.472;2023-07-29T07:26:49;14.88;;;10.32;;
4857;SDS011;58975;51.978;8.472;2023-07-29T07:31:49;13.48;;;8.90;;
4857;SDS011;58975;51.978;8.472;2023-07-29T07:36:49;12.75;;;7.90;;
4857;SDS011;58975;51.978;8.472;2023-07-29T07:41:46;8.93;;;7.25;;
4857;SDS011;58975;51.978;8.472;2023-07-29T07:46:42;6.85;;;6.15;;
4857;SDS011;58975;51.978;8.472;2023-07-29T07:51:39;5.35;;;4.35;;
4857;SDS011;58975;51.978;8.472;2023-07-29T07:56:36;5.17;;;4.00;;
4857;SDS011;58975;51.978;8.472;2023-07-29T08:01:36;5.00;;;4.13;;
4857;SDS011;58975;51.978;8.472;2023-07-29T08:06:33;6.85;;;3.40;;
4857;SDS011;58975;51.978;8.472;2023-07-29T08:11:30;3.60;;;3.30;;
4857;SDS011;58975;51.978;8.472;2023-07-29T08:16:27;7.60;;;3.90;;
4857;SDS011;58975;51.978;8.472;2023-07-29T08:21:24;5.23;;;2.80;;
4857;SDS011;58975;51.978;8.472;2023-07-29T08:26:20;3.55;;;3.25;;
4857;SDS011;58975;51.978;8.472;2023-07-29T08:31:17;5.43;;;3.47;;
4857;SDS011;58975;51.978;8.472;2023-07-29T08:36:14;6.50;;;2.87;;
4857;SDS011;58975;51.978;8.472;2023-07-29T08:46:10;2.40;;;1.58;;
4857;SDS011;58975;51.978;8.472;2023-07-29T08:51:08;5.13;;;1.58;;
4857;SDS011;58975;51.978;8.472;2023-07-29T08:56:06;2.33;;;1.60;;
4857;SDS011;58975;51.978;8.472;2023-07-29T09:01:03;1.33;;;1.20;;
4857;SDS011;58975;51.978;8.472;2023-07-29T09:06:00;5.07;;;0.93;;
4857;SDS011;58975;51.978;8.472;2023-07-29T09:10:58;1.20;;;0.95;;
4857;SDS011;58975;51.978;8.472;2023-07-29T09:15:55;0.87;;;0.87;;
4857;SDS011;58975;51.978;8.472;2023-07-29T09:20:53;2.15;;;0.63;;
4857;SDS011;58975;51.978;8.472;2023-07-29T09:25:50;1.20;;;0.60;;
4857;SDS011;58975;51.978;8.472;2023-07-29T09:30:56;2.45;;;0.70;;
4857;SDS011;58975;51.978;8.472;2023-07-29T09:35:52;0.70;;;0.70;;
4857;SDS011;58975;51.978;8.472;2023-07-29T09:40:49;1.27;;;0.80;;
4857;SDS011;58975;51.978;8.472;2023-07-29T09:45:45;0.75;;;0.55;;
4857;SDS011;58975;51.978;8.472;2023-07-29T09:50:42;3.10;;;1.13;;
4857;SDS011;58975;51.978;8.472;2023-07-29T09:55:38;0.95;;;0.88;;
4857;SDS011;58975;51.978;8.472;2023-07-29T10:00:35;0.57;;;0.57;;
4857;SDS011;58975;51.978;8.472;2023-07-29T10:05:32;1.15;;;0.57;;
4857;SDS011;58975;51.978;8.472;2023-07-29T10:10:30;2.55;;;0.50;;
4857;SDS011;58975;51.978;8.472;2023-07-29T10:15:27;0.80;;;0.60;;
4857;SDS011;58975;51.978;8.472;2023-07-29T10:20:25;0.50;;;0.50;;
4857;SDS011;58975;51.978;8.472;2023-07-29T10:25:22;0.65;;;0.60;;
4857;SDS011;58975;51.978;8.472;2023-07-29T10:35:15;0.68;;;0.60;;
4857;SDS011;58975;51.978;8.472;2023-07-29T10:40:12;2.38;;;0.40;;
4857;SDS011;58975;51.978;8.472;2023-07-29T10:45:18;0.40;;;0.23;;
4857;SDS011;58975;51.978;8.472;2023-07-29T10:50:19;0.45;;;0.30;;
4857;SDS011;58975;51.978;8.472;2023-07-29T10:55:27;0.57;;;0.57;;
4857;SDS011;58975;51.978;8.472;2023-07-29T11:00:23;0.77;;;0.40;;
4857;SDS011;58975;51.978;8.472;2023-07-29T11:05:27;1.13;;;0.50;;
4857;SDS011;58975;51.978;8.472;2023-07-29T11:10:42;0.38;;;0.30;;
4857;SDS011;58975;51.978;8.472;2023-07-29T11:15:40;1.42;;;0.40;;
4857;SDS011;58975;51.978;8.472;2023-07-29T11:20:36;0.40;;;0.40;;
4857;SDS011;58975;51.978;8.472;2023-07-29T11:25:33;0.90;;;0.40;;
4857;SDS011;58975;51.978;8.472;2023-07-29T11:30:30;0.82;;;0.68;;
4857;SDS011;58975;51.978;8.472;2023-07-29T11:35:27;1.02;;;0.70;;
4857;SDS011;58975;51.978;8.472;2023-07-29T11:40:23;0.80;;;0.77;;
4857;SDS011;58975;51.978;8.472;2023-07-29T11:45:21;1.17;;;0.70;;
4857;SDS011;58975;51.978;8.472;2023-07-29T11:50:27;1.23;;;0.60;;
4857;SDS011;58975;51.978;8.472;2023-07-29T11:55:24;0.63;;;0.50;;
4857;SDS011;58975;51.978;8.472;2023-07-29T12:00:21;0.65;;;0.50;;
4857;SDS011;58975;51.978;8.472;2023-07-29T12:05:18;1.38;;;0.80;;
4857;SDS011;58975;51.978;8.472;2023-07-29T12:10:17;1.25;;;0.90;;
4857;SDS011;58975;51.978;8.472;2023-07-29T12:15:27;1.15;;;1.00;;
4857;SDS011;58975;51.978;8.472;2023-07-29T12:20:25;2.33;;;1.30;;
4857;SDS011;58975;51.978;8.472;2023-07-29T12:25:22;1.50;;;0.90;;
4857;SDS011;58975;51.978;8.472;2023-07-29T12:30:20;3.90;;;1.20;;
4857;SDS011;58975;51.978;8.472;2023-07-29T12:35:21;0.80;;;0.80;;
4857;SDS011;58975;51.978;8.472;2023-07-29T12:40:23;1.23;;;0.93;;
4857;SDS011;58975;51.978;8.472;2023-07-29T12:45:21;2.08;;;0.88;;
4857;SDS011;58975;51.978;8.472;2023-07-29T12:50:23;1.35;;;0.90;;
4857;SDS011;58975;51.978;8.472;2023-07-29T12:55:19;0.77;;;0.77;;
4857;SDS011;58975;51.978;8.472;2023-07-29T13:00:18;1.00;;;0.93;;
4857;SDS011;58975;51.978;8.472;2023-07-29T13:05:15;0.93;;;0.70;;
4857;SDS011;58975;51.978;8.472;2023-07-29T13:10:11;1.17;;;0.90;;
4857;SDS011;58975;51.978;8.472;2023-07-29T13:15:10;1.20;;;1.10;;
4857;SDS011;58975;51.978;8.472;2023-07-29T13:20:06;2.50;;;0.60;;
4857;SDS011;58975;51.978;8.472;2023-07-29T13:25:03;0.85;;;0.60;;
4857;SDS011;58975;51.978;8.472;2023-07-29T13:30:00;0.60;;;0.55;;
4857;SDS011;58975;51.978;8.472;2023-07-29T13:34:56;1.98;;;0.57;;
4857;SDS011;58975;51.978;8.472;2023-07-29T13:39:53;0.87;;;0.60;;
4857;SDS011;58975;51.978;8.472;2023-07-29T13:44:49;0.73;;;0.73;;
4857;SDS011;58975;51.978;8.472;2023-07-29T13:49:46;1.90;;;0.70;;
4857;SDS011;58975;51.978;8.472;2023-07-29T13:54:42;4.87;;;0.60;;
4857;SDS011;58975;51.978;8.472;2023-07-29T13:59:39;0.70;;;0.60;;
4857;SDS011;58975;51.978;8.472;2023-07-29T14:04:35;4.37;;;0.60;;
4857;SDS011;58975;51.978;8.472;2023-07-29T14:09:32;0.90;;;0.90;;
4857;SDS011;58975;51.978;8.472;2023-07-29T14:14:28;8.43;;;0.87;;
4857;SDS011;58975;51.978;8.472;2023-07-29T14:19:25;0.67;;;0.60;;
4857;SDS011;58975;51.978;8.472;2023-07-29T14:24:21;2.53;;;0.70;;
4857;SDS011;58975;51.978;8.472;2023-07-29T14:29:18;1.70;;;0.80;;
4857;SDS011;58975;51.978;8.472;2023-07-29T14:34:15;1.50;;;0.70;;
4857;SDS011;58975;51.978;8.472;2023-07-29T14:39:11;1.93;;;0.90;;
4857;SDS011;58975;51.978;8.472;2023-07-29T14:44:08;1.30;;;1.13;;
4857;SDS011;58975;51.978;8.472;2023-07-29T14:49:04;1.10;;;1.00;;
4857;SDS011;58975;51.978;8.472;2023-07-29T14:54:01;1.95;;;1.15;;
4857;SDS011;58975;51.978;8.472;2023-07-29T14:58:57;1.38;;;1.27;;
4857;SDS011;58975;51.978;8.472;2023-07-29T15:03:54;1.60;;;1.25;;
4857;SDS011;58975;51.978;8.472;2023-07-29T15:08:50;1.67;;;1.57;;
4857;SDS011;58975;51.978;8.472;2023-07-29T15:13:47;1.50;;;1.40;;
4857;SDS011;58975;51.978;8.472;2023-07-29T15:18:43;2.42;;;1.30;;
4857;SDS011;58975;51.978;8.472;2023-07-29T15:23:40;1.40;;;1.30;;
4857;SDS011;58975;51.978;8.472;2023-07-29T15:28:36;1.55;;;1.30;;
4857;SDS011;58975;51.978;8.472;2023-07-29T15:33:33;3.03;;;1.20;;
4857;SDS011;58975;51.978;8.472;2023-07-29T15:43:27;3.03;;;1.90;;
4857;SDS011;58975;51.978;8.472;2023-07-29T15:48:23;3.05;;;1.67;;
4857;SDS011;58975;51.978;8.472;2023-07-29T15:53:20;3.58;;;1.50;;
4857;SDS011;58975;51.978;8.472;2023-07-29T15:58:16;2.50;;;1.50;;
4857;SDS011;58975;51.978;8.472;2023-07-29T16:03:13;3.00;;;1.30;;
4857;SDS011;58975;51.978;8.472;2023-07-29T16:08:09;4.22;;;1.55;;
4857;SDS011;58975;51.978;8.472;2023-07-29T16:13:06;2.33;;;1.25;;
4857;SDS011;58975;51.978;8.472;2023-07-29T16:18:02;1.90;;;1.00;;
4857;SDS011;58975;51.978;8.472;2023-07-29T16:22:59;2.03;;;1.25;;
4857;SDS011;58975;51.978;8.472;2023-07-29T16:27:55;3.22;;;0.82;;
4857;SDS011;58975;51.978;8.472;2023-07-29T16:37:49;2.03;;;0.93;;
4857;SDS011;58975;51.978;8.472;2023-07-29T16:42:46;1.40;;;0.80;;
4857;SDS011;58975;51.978;8.472;2023-07-29T16:47:42;2.70;;;0.82;;
4857;SDS011;58975;51.978;8.472;2023-07-29T16:52:39;0.77;;;0.60;;
4857;SDS011;58975;51.978;8.472;2023-07-29T16:57:35;1.15;;;0.60;;
4857;SDS011;58975;51.978;8.472;2023-07-29T17:02:32;0.90;;;0.82;;
4857;SDS011;58975;51.978;8.472;2023-07-29T17:07:28;0.95;;;0.52;;
4857;SDS011;58975;51.978;8.472;2023-07-29T17:12:24;0.90;;;0.63;;
4857;SDS011;58975;51.978;8.472;2023-07-29T17:17:21;2.00;;;0.50;;
4857;SDS011;58975;51.978;8.472;2023-07-29T17:22:18;1.10;;;0.43;;
4857;SDS011;58975;51.978;8.472;2023-07-29T17:27:14;3.00;;;0.60;;
4857;SDS011;58975;51.978;8.472;2023-07-29T17:32:11;1.33;;;0.90;;
4857;SDS011;58975;51.978;8.472;2023-07-29T17:42:05;2.03;;;0.60;;
4857;SDS011;58975;51.978;8.472;2023-07-29T17:47:02;5.95;;;0.93;;
4857;SDS011;58975;51.978;8.472;2023-07-29T17:51:59;2.13;;;0.38;;
4857;SDS011;58975;51.978;8.472;2023-07-29T17:56:55;3.85;;;0.82;;
4857;SDS011;58975;51.978;8.472;2023-07-29T18:01:52;0.65;;;0.65;;
4857;SDS011;58975;51.978;8.472;2023-07-29T18:16:41;0.70;;;0.60;;
4857;SDS011;58975;51.978;8.472;2023-07-29T18:21:38;1.27;;;0.85;;
4857;SDS011;58975;51.978;8.472;2023-07-29T18:31:31;2.70;;;1.00;;
4857;SDS011;58975;51.978;8.472;2023-07-29T18:36:29;1.85;;;0.65;;
4857;SDS011;58975;51.978;8.472;2023-07-29T18:41:26;0.75;;;0.50;;
4857;SDS011;58975;51.978;8.472;2023-07-29T18:46:23;2.55;;;0.60;;
4857;SDS011;58975;51.978;8.472;2023-07-29T18:51:25;3.53;;;0.65;;
4857;SDS011;58975;51.978;8.472;2023-07-29T18:56:22;2.63;;;0.70;;
4857;SDS011;58975;51.978;8.472;2023-07-29T19:01:18;1.80;;;0.77;;
4857;SDS011;58975;51.978;8.472;2023-07-29T19:06:15;1.75;;;0.73;;
4857;SDS011;58975;51.978;8.472;2023-07-29T19:11:12;2.08;;;0.93;;
4857;SDS011;58975;51.978;8.472;2023-07-29T19:16:11;9.07;;;0.90;;
4857;SDS011;58975;51.978;8.472;2023-07-29T19:21:08;1.65;;;0.93;;
4857;SDS011;58975;51.978;8.472;2023-07-29T19:26:05;2.87;;;0.60;;
4857;SDS011;58975;51.978;8.472;2023-07-29T19:31:01;1.70;;;1.17;;
4857;SDS011;58975;51.978;8.472;2023-07-29T19:35:58;1.05;;;0.70;;
4857;SDS011;58975;51.978;8.472;2023-07-29T19:40:58;2.25;;;0.93;;
4857;SDS011;58975;51.978;8.472;2023-07-29T19:45:59;3.63;;;1.40;;
4857;SDS011;58975;51.978;8.472;2023-07-29T19:50:59;3.03;;;1.20;;
4857;SDS011;58975;51.978;8.472;2023-07-29T19:55:55;1.90;;;1.10;;
4857;SDS011;58975;51.978;8.472;2023-07-29T20:00:52;2.47;;;1.00;;
4857;SDS011;58975;51.978;8.472;2023-07-29T20:05:49;1.92;;;0.98;;
4857;SDS011;58975;51.978;8.472;2023-07-29T20:10:45;5.70;;;1.42;;
4857;SDS011;58975;51.978;8.472;2023-07-29T20:15:42;2.03;;;1.40;;
4857;SDS011;58975;51.978;8.472;2023-07-29T20:20:39;2.10;;;1.40;;
4857;SDS011;58975;51.978;8.472;2023-07-29T20:25:36;1.75;;;1.50;;
4857;SDS011;58975;51.978;8.472;2023-07-29T20:30:32;1.38;;;1.27;;
4857;SDS011;58975;51.978;8.472;2023-07-29T20:35:29;4.00;;;2.10;;
4857;SDS011;58975;51.978;8.472;2023-07-29T20:40:25;1.98;;;1.40;;
4857;SDS011;58975;51.978;8.472;2023-07-29T20:45:22;3.63;;;1.48;;
4857;SDS011;58975;51.978;8.472;2023-07-29T20:50:19;4.80;;;2.25;;
4857;SDS011;58975;51.978;8.472;2023-07-29T20:55:15;2.05;;;1.52;;
4857;SDS011;58975;51.978;8.472;2023-07-29T21:00:12;5.97;;;1.95;;
4857;SDS011;58975;51.978;8.472;2023-07-29T21:05:08;1.40;;;1.30;;
4857;SDS011;58975;51.978;8.472;2023-07-29T21:10:05;3.63;;;1.85;;
4857;SDS011;58975;51.978;8.472;2023-07-29T21:15:02;4.70;;;1.60;;
4857;SDS011;58975;51.978;8.472;2023-07-29T21:19:59;1.90;;;1.33;;
4857;SDS011;58975;51.978;8.472;2023-07-29T21:24:57;3.70;;;1.85;;
4857;SDS011;58975;51.978;8.472;2023-07-29T21:29:54;3.72;;;2.40;;
4857;SDS011;58975;51.978;8.472;2023-07-29T21:34:50;2.55;;;1.88;;
4857;SDS011;58975;51.978;8.472;2023-07-29T21:39:49;2.65;;;2.22;;
4857;SDS011;58975;51.978;8.472;2023-07-29T21:44:46;1.75;;;1.65;;
4857;SDS011;58975;51.978;8.472;2023-07-29T21:49:42;4.05;;;1.80;;
4857;SDS011;58975;51.978;8.472;2023-07-29T21:54:39;3.20;;;1.77;;
4857;SDS011;58975;51.978;8.472;2023-07-29T21:59:35;3.70;;;2.22;;
4857;SDS011;58975;51.978;8.472;2023-07-29T22:04:32;2.05;;;1.67;;
4857;SDS011;58975;51.978;8.472;2023-07-29T22:09:29;4.57;;;2.10;;
4857;SDS011;58975;51.978;8.472;2023-07-29T22:14:25;2.50;;;1.90;;
4857;SDS011;58975;51.978;8.472;2023-07-29T22:19:22;3.45;;;1.85;;
4857;SDS011;58975;51.978;8.472;2023-07-29T22:24:18;2.78;;;1.88;;
4857;SDS011;58975;51.978;8.472;2023-07-29T22:29:15;1.80;;;1.70;;
4857;SDS011;58975;51.978;8.472;2023-07-29T22:34:12;2.75;;;2.22;;
4857;SDS011;58975;51.978;8.472;2023-07-29T22:39:09;3.77;;;1.83;;
4857;SDS011;58975;51.978;8.472;2023-07-29T22:44:05;2.92;;;2.63;;
4857;SDS011;58975;51.978;8.472;2023-07-29T22:49:02;4.47;;;2.45;;
4857;SDS011;58975;51.978;8.472;2023-07-29T22:53:58;2.65;;;2.45;;
4857;SDS011;58975;51.978;8.472;2023-07-29T22:58:55;8.38;;;3.15;;
4857;SDS011;58975;51.978;8.472;2023-07-29T23:03:51;3.72;;;3.42;;
4857;SDS011;58975;51.978;8.472;2023-07-29T23:08:48;3.75;;;3.40;;
4857;SDS011;58975;51.978;8.472;2023-07-29T23:13:44;6.93;;;3.72;;
4857;SDS011;58975;51.978;8.472;2023-07-29T23:18:41;4.30;;;3.83;;
4857;SDS011;58975;51.978;8.472;2023-07-29T23:23:37;6.85;;;3.78;;
4857;SDS011;58975;51.978;8.472;2023-07-29T23:28:34;10.43;;;4.40;;
4857;SDS011;58975;51.978;8.472;2023-07-29T23:33:31;5.35;;;4.15;;
4857;SDS011;58975;51.978;8.472;2023-07-29T23:38:28;5.63;;;4.90;;
4857;SDS011;58975;51.978;8.472;2023-07-29T23:43:24;8.10;;;4.43;;
4857;SDS011;58975;51.978;8.472;2023-07-29T23:48:21;5.80;;;4.32;;
4857;SDS011;58975;51.978;8.472;2023-07-29T23:53:17;7.38;;;4.63;;
4857;SDS011;58975;51.978;8.472;2023-07-29T23:58:14;5.53;;;4.47;;
